createdAt,value
2022-09-15T00:01:09.665Z,22.20
2022-09-15T00:03:36.898Z,22.20
2022-09-15T00:06:04.329Z,22.20
2022-09-15T00:08:31.724Z,22.20
2022-09-15T00:11:09.619Z,22.20
2022-09-15T00:13:37.929Z,22.30
2022-09-15T00:16:05.581Z,22.20
2022-09-15T00:18:33.978Z,22.30
2022-09-15T00:21:05.028Z,22.20
2022-09-15T00:23:31.977Z,22.20
2022-09-15T00:25:58.932Z,22.10
2022-09-15T00:28:25.961Z,22.10
2022-09-15T00:30:54.667Z,22.10
2022-09-15T00:33:22.918Z,22.10
2022-09-15T00:35:52.246Z,22.00
2022-09-15T00:38:20.039Z,21.90
2022-09-15T00:40:50.285Z,21.90
2022-09-15T00:43:18.961Z,21.90
2022-09-15T00:45:46.037Z,21.80
2022-09-15T00:48:19.061Z,21.80
2022-09-15T00:50:53.925Z,21.90
2022-09-15T00:53:23.616Z,21.90
2022-09-15T00:55:51.258Z,21.90
2022-09-15T00:58:42.788Z,21.90
2022-09-15T01:01:11.015Z,21.80
2022-09-15T01:03:38.140Z,21.80
2022-09-15T01:06:31.225Z,21.70
2022-09-15T01:09:09.636Z,21.80
2022-09-15T01:11:36.908Z,21.70
2022-09-15T01:14:04.264Z,21.70
2022-09-15T01:16:41.679Z,21.80
2022-09-15T01:19:22.449Z,21.80
2022-09-15T01:22:17.155Z,21.80
2022-09-15T01:24:55.921Z,21.70
2022-09-15T01:27:42.411Z,21.70
2022-09-15T01:30:12.062Z,21.60
2022-09-15T01:33:06.517Z,21.60
2022-09-15T01:35:51.640Z,21.60
2022-09-15T01:38:24.148Z,21.60
2022-09-15T01:41:00.208Z,21.50
2022-09-15T01:43:29.562Z,21.60
2022-09-15T01:45:57.794Z,21.70
2022-09-15T01:48:27.374Z,21.70
2022-09-15T01:51:00.472Z,21.70
2022-09-15T01:53:28.584Z,21.70
2022-09-15T01:56:08.697Z,21.70
2022-09-15T01:58:37.049Z,21.80
2022-09-15T02:01:09.657Z,21.80
2022-09-15T02:03:51.269Z,21.80
2022-09-15T02:06:36.743Z,21.90
2022-09-15T02:09:14.997Z,21.80
2022-09-15T02:11:58.251Z,21.80
2022-09-15T02:14:52.264Z,21.80
2022-09-15T02:17:20.860Z,21.80
2022-09-15T02:19:56.310Z,21.80
2022-09-15T02:22:28.232Z,21.80
2022-09-15T02:25:00.209Z,21.80
2022-09-15T02:27:31.695Z,21.90
2022-09-15T02:30:03.333Z,21.80
2022-09-15T02:32:32.014Z,21.80
2022-09-15T02:35:01.787Z,21.80
2022-09-15T02:37:28.749Z,21.70
2022-09-15T02:39:59.917Z,21.80
2022-09-15T02:42:31.556Z,21.80
2022-09-15T02:44:59.826Z,21.70
2022-09-15T02:47:28.301Z,21.80
2022-09-15T02:49:55.588Z,21.80
2022-09-15T02:52:22.639Z,21.90
2022-09-15T02:54:50.442Z,21.90
2022-09-15T02:57:17.678Z,21.80
2022-09-15T03:00:03.044Z,21.80
2022-09-15T03:02:30.202Z,21.90
2022-09-15T03:04:57.127Z,21.80
2022-09-15T03:07:24.903Z,21.80
2022-09-15T03:09:51.827Z,21.80
2022-09-15T03:12:18.657Z,21.70
2022-09-15T03:14:46.977Z,21.60
2022-09-15T03:17:13.822Z,21.40
2022-09-15T03:19:40.647Z,21.30
2022-09-15T03:22:09.367Z,21.20
2022-09-15T03:24:37.321Z,21.00
2022-09-15T03:27:05.289Z,21.00
2022-09-15T03:29:32.145Z,21.00
2022-09-15T03:31:59.145Z,20.90
2022-09-15T03:34:26.073Z,20.80
2022-09-15T03:36:52.934Z,20.70
2022-09-15T03:39:19.834Z,20.60
2022-09-15T03:41:46.658Z,20.70
2022-09-15T03:44:13.746Z,20.60
2022-09-15T03:46:40.783Z,20.60
2022-09-15T03:49:08.270Z,20.60
2022-09-15T03:51:35.062Z,20.60
2022-09-15T03:54:01.982Z,20.60
2022-09-15T03:56:33.017Z,20.60
2022-09-15T03:59:02.151Z,20.50
2022-09-15T04:01:30.289Z,20.40
2022-09-15T04:03:58.613Z,20.40
2022-09-15T04:06:26.816Z,20.40
2022-09-15T04:08:54.735Z,20.30
2022-09-15T04:11:22.862Z,20.30
2022-09-15T04:13:50.113Z,20.30
2022-09-15T04:16:19.440Z,20.20
2022-09-15T04:18:46.813Z,20.20
2022-09-15T04:21:17.388Z,20.20
2022-09-15T04:23:44.894Z,20.20
2022-09-15T04:26:24.892Z,20.20
2022-09-15T04:28:51.809Z,20.20
2022-09-15T04:31:19.713Z,20.30
2022-09-15T04:33:47.199Z,20.20
2022-09-15T04:36:21.192Z,20.20
2022-09-15T04:38:48.591Z,20.30
2022-09-15T04:41:15.404Z,20.20
2022-09-15T04:43:45.645Z,20.30
2022-09-15T04:46:14.064Z,20.20
2022-09-15T04:48:41.377Z,20.30
2022-09-15T04:51:11.915Z,20.30
2022-09-15T04:53:39.102Z,20.30
2022-09-15T04:56:12.359Z,20.40
2022-09-15T04:58:40.744Z,20.30
2022-09-15T05:01:14.034Z,20.30
2022-09-15T05:03:41.753Z,20.30
2022-09-15T05:06:11.436Z,20.30
2022-09-15T05:08:39.015Z,20.40
2022-09-15T05:11:08.230Z,20.40
2022-09-15T05:13:36.575Z,20.40
2022-09-15T05:16:08.498Z,20.40
2022-09-15T05:18:35.960Z,20.50
2022-09-15T05:21:05.192Z,20.50
2022-09-15T05:23:33.836Z,20.60
2022-09-15T05:26:03.009Z,20.60
2022-09-15T05:28:32.360Z,20.70
2022-09-15T05:30:59.412Z,20.70
2022-09-15T05:33:26.421Z,20.70
2022-09-15T05:35:58.177Z,20.80
2022-09-15T05:38:28.149Z,20.80
2022-09-15T05:40:55.885Z,20.80
2022-09-15T05:43:23.194Z,20.90
2022-09-15T05:45:56.227Z,20.90
2022-09-15T05:48:24.282Z,20.90
2022-09-15T05:50:52.869Z,20.80
2022-09-15T05:53:20.660Z,20.80
2022-09-15T05:55:47.915Z,20.80
2022-09-15T05:58:15.421Z,20.80
2022-09-15T06:00:42.616Z,20.80
2022-09-15T06:03:15.447Z,20.70
2022-09-15T06:05:42.755Z,20.70
2022-09-15T06:08:09.838Z,20.80
2022-09-15T06:10:36.970Z,20.70
2022-09-15T06:13:04.042Z,20.70
2022-09-15T06:15:31.721Z,20.70
2022-09-15T06:17:58.875Z,20.70
2022-09-15T06:20:26.000Z,20.70
2022-09-15T06:22:56.569Z,20.80
2022-09-15T06:25:23.617Z,20.90
2022-09-15T06:27:50.928Z,21.00
2022-09-15T06:30:18.041Z,21.00
2022-09-15T06:32:48.116Z,21.10
2022-09-15T06:35:15.848Z,21.10
2022-09-15T06:37:42.762Z,21.10
2022-09-15T06:40:10.254Z,21.20
2022-09-15T06:42:37.255Z,21.10
2022-09-15T06:45:04.490Z,21.10
2022-09-15T06:47:34.046Z,21.10
2022-09-15T06:50:01.386Z,21.10
2022-09-15T06:52:28.374Z,21.20
2022-09-15T06:54:55.168Z,21.20
2022-09-15T06:57:22.150Z,21.30
2022-09-15T06:59:48.996Z,21.40
2022-09-15T07:02:16.008Z,21.40
2022-09-15T07:04:43.070Z,21.50
2022-09-15T07:07:09.880Z,21.40
2022-09-15T07:09:40.953Z,21.40
2022-09-15T07:12:08.205Z,21.30
2022-09-15T07:14:35.100Z,21.30
2022-09-15T07:17:02.394Z,21.20
2022-09-15T07:19:29.273Z,21.10
2022-09-15T07:21:56.176Z,21.10
2022-09-15T07:24:23.073Z,21.00
2022-09-15T07:26:49.983Z,21.00
2022-09-15T07:29:16.876Z,21.00
2022-09-15T07:31:43.786Z,21.10
2022-09-15T07:34:10.941Z,21.10
2022-09-15T07:36:37.861Z,21.10
2022-09-15T07:39:05.512Z,21.20
2022-09-15T07:41:33.054Z,21.20
2022-09-15T07:44:00.613Z,21.30
2022-09-15T07:46:31.129Z,21.40
2022-09-15T07:48:58.173Z,21.50
2022-09-15T07:51:26.032Z,21.60
2022-09-15T07:53:53.575Z,21.70
2022-09-15T07:56:21.658Z,21.70
2022-09-15T07:58:51.125Z,21.80
2022-09-15T08:01:20.253Z,21.90
2022-09-15T08:03:50.067Z,22.10
2022-09-15T08:06:20.606Z,22.30
2022-09-15T08:08:47.511Z,22.70
2022-09-15T08:11:19.061Z,22.90
2022-09-15T08:13:51.007Z,23.30
2022-09-15T08:16:21.324Z,23.20
2022-09-15T08:18:48.756Z,23.00
2022-09-15T08:21:22.871Z,23.00
2022-09-15T08:23:56.117Z,23.00
2022-09-15T08:26:24.079Z,22.70
2022-09-15T08:28:51.247Z,22.60
2022-09-15T08:31:18.395Z,22.40
2022-09-15T08:33:53.685Z,22.20
2022-09-15T08:36:20.808Z,22.10
2022-09-15T08:38:48.107Z,21.90
2022-09-15T08:41:24.421Z,21.90
2022-09-15T08:44:17.218Z,21.70
2022-09-15T08:47:11.698Z,21.70
2022-09-15T08:49:51.834Z,21.60
2022-09-15T08:52:30.372Z,21.60
2022-09-15T08:55:00.010Z,21.60
2022-09-15T08:57:27.475Z,21.60
2022-09-15T08:59:54.926Z,21.70
2022-09-15T09:02:50.600Z,21.70
2022-09-15T09:05:32.346Z,21.80
2022-09-15T09:08:30.429Z,21.70
2022-09-15T09:11:20.727Z,21.80
2022-09-15T09:13:57.793Z,21.80
2022-09-15T09:16:58.837Z,21.80
2022-09-15T09:19:53.794Z,21.90
2022-09-15T09:22:25.805Z,21.80
2022-09-15T09:24:55.282Z,21.80
2022-09-15T09:27:26.316Z,21.70
2022-09-15T09:30:01.565Z,21.60
2022-09-15T09:32:54.521Z,21.60
2022-09-15T09:35:27.325Z,21.60
2022-09-15T09:37:54.781Z,21.60
2022-09-15T09:40:22.652Z,21.60
2022-09-15T09:42:50.041Z,21.70
2022-09-15T09:45:18.912Z,21.70
2022-09-15T09:47:48.967Z,21.60
2022-09-15T09:50:44.413Z,21.60
2022-09-15T09:53:32.072Z,21.70
2022-09-15T09:56:28.278Z,21.60
2022-09-15T09:58:55.573Z,21.70
2022-09-15T10:01:26.105Z,21.70
2022-09-15T10:04:19.201Z,21.80
2022-09-15T10:06:46.724Z,21.90
2022-09-15T10:09:16.997Z,22.10
2022-09-15T10:11:49.677Z,22.10
2022-09-15T10:14:19.894Z,22.10
2022-09-15T10:17:13.925Z,22.20
2022-09-15T10:19:45.789Z,22.30
2022-09-15T10:22:31.449Z,22.30
2022-09-15T10:25:00.465Z,22.30
2022-09-15T10:27:35.825Z,22.30
2022-09-15T10:30:14.706Z,22.30
2022-09-15T10:32:43.244Z,22.20
2022-09-15T10:35:18.753Z,22.30
2022-09-15T10:37:45.633Z,22.30
2022-09-15T10:40:43.895Z,22.30
2022-09-15T10:43:13.710Z,22.50
2022-09-15T10:45:48.419Z,22.60
2022-09-15T10:48:23.318Z,22.70
2022-09-15T10:50:59.169Z,22.90
2022-09-15T10:53:28.885Z,23.10
2022-09-15T10:56:01.760Z,23.20
2022-09-15T10:58:43.519Z,23.30
2022-09-15T11:01:31.899Z,23.30
2022-09-15T11:04:13.528Z,23.20
2022-09-15T11:07:22.941Z,23.00
2022-09-15T11:10:03.657Z,23.10
2022-09-15T11:12:36.420Z,23.00
2022-09-15T11:15:21.258Z,23.10
2022-09-15T11:18:15.741Z,23.10
2022-09-15T11:21:11.916Z,22.90
2022-09-15T11:23:48.292Z,22.80
2022-09-15T11:26:24.133Z,22.90
2022-09-15T11:28:53.801Z,23.00
2022-09-15T11:31:27.008Z,22.90
2022-09-15T11:34:03.157Z,22.80
2022-09-15T11:36:43.596Z,22.70
2022-09-15T11:39:36.282Z,22.70
2022-09-15T11:42:14.205Z,22.70
2022-09-15T11:44:45.094Z,22.60
2022-09-15T11:47:38.730Z,22.60
2022-09-15T11:50:23.151Z,22.60
2022-09-15T11:52:50.276Z,22.60
2022-09-15T11:55:37.179Z,22.70
2022-09-15T11:58:16.337Z,22.70
2022-09-15T12:01:16.359Z,22.70
2022-09-15T12:04:02.525Z,22.70
2022-09-15T12:06:57.111Z,22.80
2022-09-15T12:09:24.192Z,22.80
2022-09-15T12:12:01.282Z,22.70
2022-09-15T12:14:41.377Z,22.60
2022-09-15T12:17:12.991Z,21.70
2022-09-15T12:19:52.229Z,20.70
2022-09-15T12:22:28.803Z,20.00
2022-09-15T12:25:04.518Z,19.30
2022-09-15T12:27:31.486Z,18.90
2022-09-15T12:30:00.420Z,18.60
2022-09-15T12:32:35.132Z,18.50
2022-09-15T12:35:25.244Z,18.30
2022-09-15T12:38:00.486Z,18.20
2022-09-15T12:40:30.476Z,18.20
2022-09-15T12:42:57.882Z,18.20
2022-09-15T12:45:29.009Z,18.10
2022-09-15T12:48:20.473Z,18.10
2022-09-15T12:50:57.873Z,18.20
2022-09-15T12:53:50.778Z,18.40
2022-09-15T12:56:29.571Z,18.40
2022-09-15T12:58:56.891Z,18.40
2022-09-15T13:01:24.482Z,18.40
2022-09-15T13:04:11.506Z,18.40
2022-09-15T13:06:38.519Z,18.40
2022-09-15T13:09:05.594Z,18.50
2022-09-15T13:11:38.374Z,18.60
2022-09-15T13:14:08.283Z,18.70
2022-09-15T13:16:41.219Z,18.80
2022-09-15T13:19:17.317Z,18.70
2022-09-15T13:21:52.053Z,18.80
2022-09-15T13:24:26.897Z,18.80
2022-09-15T13:26:56.043Z,18.90
2022-09-15T13:29:24.418Z,18.90
2022-09-15T13:32:07.180Z,18.90
2022-09-15T13:35:14.946Z,18.90
2022-09-15T13:38:31.853Z,18.90
2022-09-15T13:41:37.257Z,18.90
2022-09-15T13:44:23.300Z,18.90
2022-09-15T13:46:53.433Z,18.90
2022-09-15T13:49:48.504Z,18.90
2022-09-15T13:52:37.406Z,18.90
2022-09-15T13:55:21.700Z,18.90
2022-09-15T14:00:48.032Z,19.10
2022-09-15T14:03:19.984Z,19.20
2022-09-15T14:05:47.188Z,19.30
2022-09-15T14:08:30.322Z,19.40
2022-09-15T14:11:01.797Z,19.40
2022-09-15T14:13:30.201Z,19.50
2022-09-15T14:16:19.139Z,19.50
2022-09-15T14:18:47.079Z,19.40
2022-09-15T14:21:20.020Z,19.20
2022-09-15T14:23:50.426Z,19.20
2022-09-15T14:26:20.334Z,19.20
2022-09-15T14:28:55.286Z,19.20
2022-09-15T14:31:34.775Z,19.20
2022-09-15T14:34:04.989Z,19.30
2022-09-15T14:36:33.715Z,19.30
2022-09-15T14:39:20.343Z,19.50
2022-09-15T14:41:48.334Z,19.50
2022-09-15T14:47:12.329Z,19.40
2022-09-15T14:49:39.345Z,19.60
2022-09-15T14:52:33.842Z,19.60
2022-09-15T14:55:05.337Z,19.50
2022-09-15T14:57:38.584Z,19.50
2022-09-15T15:00:17.457Z,19.60
2022-09-15T15:02:58.434Z,19.60
2022-09-15T15:05:33.926Z,19.60
2022-09-15T15:08:04.553Z,19.70
2022-09-15T15:10:35.663Z,19.80
2022-09-15T15:13:08.979Z,19.70
2022-09-15T15:15:38.080Z,19.70
2022-09-15T15:18:39.038Z,19.60
2022-09-15T15:21:26.922Z,19.50
2022-09-15T15:23:54.207Z,19.50
2022-09-15T15:26:27.284Z,19.50
2022-09-15T15:28:54.254Z,19.60
2022-09-15T15:31:25.109Z,19.70
2022-09-15T15:33:59.532Z,19.80
2022-09-15T15:36:28.691Z,19.90
2022-09-15T15:39:01.661Z,20.00
2022-09-15T15:41:38.850Z,20.00
2022-09-15T15:44:24.116Z,19.90
2022-09-15T15:46:52.853Z,19.80
2022-09-15T15:49:21.597Z,19.90
2022-09-15T15:51:48.951Z,19.90
2022-09-15T15:54:15.855Z,19.90
2022-09-15T15:56:42.822Z,20.00
2022-09-15T15:59:12.882Z,20.10
2022-09-15T16:01:40.036Z,20.00
2022-09-15T16:04:08.090Z,20.00
2022-09-15T16:06:36.005Z,19.90
2022-09-15T16:09:04.089Z,19.90
2022-09-15T16:11:31.044Z,20.00
2022-09-15T16:13:58.326Z,20.00
2022-09-15T16:16:27.249Z,20.20
2022-09-15T16:18:54.507Z,20.20
2022-09-15T16:21:38.362Z,20.10
2022-09-15T16:24:06.573Z,20.10
2022-09-15T16:26:35.632Z,20.00
2022-09-15T16:29:02.645Z,20.00
2022-09-15T16:31:30.408Z,20.00
2022-09-15T16:33:57.295Z,20.00
2022-09-15T16:36:25.961Z,19.90
2022-09-15T16:38:52.996Z,19.90
2022-09-15T16:41:28.221Z,19.80
2022-09-15T16:43:58.099Z,19.80
2022-09-15T16:46:25.228Z,19.70
2022-09-15T16:48:52.274Z,19.70
2022-09-15T16:51:29.896Z,19.70
2022-09-15T16:53:58.700Z,19.70
2022-09-15T16:56:26.003Z,19.60
2022-09-15T16:58:57.455Z,19.50
2022-09-15T17:01:27.059Z,19.30
2022-09-15T17:03:54.019Z,19.20
2022-09-15T17:06:22.196Z,19.10
2022-09-15T17:08:49.311Z,19.10
2022-09-15T17:11:18.605Z,18.90
2022-09-15T17:13:46.119Z,18.90
2022-09-15T17:16:17.614Z,18.90
2022-09-15T17:18:44.894Z,18.90
2022-09-15T17:21:12.602Z,18.90
2022-09-15T17:23:42.874Z,18.80
2022-09-15T17:26:19.744Z,18.80
2022-09-15T17:28:47.057Z,18.70
2022-09-15T17:31:24.885Z,18.80
2022-09-15T17:33:52.343Z,18.70
2022-09-15T17:36:19.598Z,18.60
2022-09-15T17:38:48.785Z,18.60
2022-09-15T17:41:20.172Z,18.40
2022-09-15T17:43:47.268Z,18.40
2022-09-15T17:46:15.063Z,18.40
2022-09-15T17:48:41.973Z,18.40
2022-09-15T17:51:14.996Z,18.30
2022-09-15T17:53:42.548Z,18.20
2022-09-15T17:56:09.667Z,18.10
2022-09-15T17:58:36.724Z,18.00
2022-09-15T18:01:03.889Z,17.90
2022-09-15T18:03:34.786Z,17.80
2022-09-15T18:06:07.417Z,17.80
2022-09-15T18:08:35.881Z,17.90
2022-09-15T18:11:04.193Z,17.90
2022-09-15T18:13:31.310Z,17.80
2022-09-15T18:16:03.781Z,17.80
2022-09-15T18:18:30.680Z,17.70
2022-09-15T18:20:58.378Z,17.80
2022-09-15T18:23:28.350Z,17.80
2022-09-15T18:25:55.705Z,17.90
2022-09-15T18:28:22.636Z,17.90
2022-09-15T18:30:50.339Z,17.90
2022-09-15T18:33:22.705Z,17.90
2022-09-15T18:35:52.054Z,17.90
2022-09-15T18:38:19.052Z,17.80
2022-09-15T18:40:55.471Z,17.90
2022-09-15T18:43:25.185Z,17.80
2022-09-15T18:46:10.679Z,17.70
2022-09-15T18:48:37.761Z,17.70
2022-09-15T18:51:08.533Z,17.60
2022-09-15T18:53:38.926Z,17.60
2022-09-15T18:56:13.442Z,17.60
2022-09-15T18:58:40.885Z,17.60
2022-09-15T19:01:07.909Z,17.50
2022-09-15T19:03:35.397Z,17.30
2022-09-15T19:06:06.685Z,17.30
2022-09-15T19:08:36.456Z,17.30
2022-09-15T19:11:03.374Z,17.30
2022-09-15T19:13:30.585Z,17.30
2022-09-15T19:16:04.601Z,17.30
2022-09-15T19:18:32.050Z,17.30
2022-09-15T19:21:10.632Z,17.20
2022-09-15T19:23:39.141Z,17.10
2022-09-15T19:26:09.455Z,17.10
2022-09-15T19:28:36.566Z,17.00
2022-09-15T19:31:03.584Z,17.00
2022-09-15T19:33:30.631Z,16.90
2022-09-15T19:36:26.947Z,16.90
2022-09-15T19:38:50.256Z,16.80
2022-09-15T19:41:17.893Z,16.70
2022-09-15T19:43:44.922Z,16.80
2022-09-15T19:46:21.433Z,16.80
2022-09-15T19:48:50.200Z,16.80
2022-09-15T19:51:18.254Z,16.90
2022-09-15T19:53:46.245Z,16.90
2022-09-15T19:56:18.558Z,16.90
2022-09-15T19:58:46.065Z,16.90
2022-09-15T20:01:13.102Z,16.90
2022-09-15T20:03:40.165Z,16.70
2022-09-15T20:06:08.993Z,16.70
2022-09-15T20:08:36.713Z,16.70
2022-09-15T20:11:08.086Z,16.80
2022-09-15T20:13:39.347Z,16.70
2022-09-15T20:16:07.372Z,16.60
2022-09-15T20:18:39.118Z,16.50
2022-09-15T20:21:12.327Z,16.50
2022-09-15T20:23:49.085Z,16.60
2022-09-15T20:26:17.576Z,16.50
2022-09-15T20:28:45.210Z,16.40
2022-09-15T20:31:13.840Z,16.50
2022-09-15T20:33:43.097Z,16.60
2022-09-15T20:36:23.205Z,16.60
2022-09-15T20:38:51.634Z,16.50
2022-09-15T20:41:20.373Z,16.50
2022-09-15T20:43:47.220Z,16.50
2022-09-15T20:46:16.567Z,16.50
2022-09-15T20:48:43.740Z,16.50
2022-09-15T20:51:22.145Z,16.50
2022-09-15T20:53:52.198Z,16.50
2022-09-15T20:56:23.171Z,16.70
2022-09-15T20:58:50.537Z,16.70
2022-09-15T21:01:21.300Z,16.70
2022-09-15T21:03:48.514Z,16.80
2022-09-15T21:06:18.454Z,16.90
2022-09-15T21:08:47.429Z,18.00
2022-09-15T21:11:15.878Z,17.00
2022-09-15T21:13:43.891Z,17.00
2022-09-15T21:16:14.615Z,17.00
2022-09-15T21:18:43.540Z,17.00
2022-09-15T21:21:11.936Z,16.90
2022-09-15T21:23:47.707Z,16.90
2022-09-15T21:26:19.644Z,16.90
2022-09-15T21:28:47.189Z,16.90
2022-09-15T21:31:19.554Z,16.90
2022-09-15T21:33:47.746Z,17.00
2022-09-15T21:36:17.969Z,17.00
2022-09-15T21:38:45.251Z,17.00
2022-09-15T21:41:15.202Z,17.00
2022-09-15T21:43:44.502Z,17.20
2022-09-15T21:46:17.119Z,17.10
2022-09-15T21:48:44.652Z,17.30
2022-09-15T21:51:14.289Z,17.20
2022-09-15T21:53:42.359Z,17.30
2022-09-15T21:56:11.540Z,17.40
2022-09-15T21:58:43.014Z,17.30
2022-09-15T22:01:25.764Z,17.20
2022-09-15T22:03:55.316Z,17.10
2022-09-15T22:06:27.729Z,17.20
2022-09-15T22:08:55.437Z,17.20
2022-09-15T22:11:23.330Z,17.10
2022-09-15T22:13:50.350Z,17.10
2022-09-15T22:16:19.833Z,17.10
2022-09-15T22:18:47.074Z,17.10
2022-09-15T22:21:19.626Z,17.10
2022-09-15T22:23:48.003Z,17.20
2022-09-15T22:26:17.843Z,17.20
2022-09-15T22:28:45.133Z,17.20
2022-09-15T22:31:14.019Z,17.20
2022-09-15T22:33:42.273Z,17.10
2022-09-15T22:36:17.965Z,17.10
2022-09-15T22:38:45.541Z,17.10
2022-09-15T22:41:16.084Z,17.00
2022-09-15T22:43:45.065Z,17.00
2022-09-15T22:46:12.373Z,17.10
2022-09-15T22:48:43.293Z,17.00
2022-09-15T22:51:11.756Z,17.00
2022-09-15T22:53:38.804Z,17.10
2022-09-15T22:56:08.263Z,17.00
2022-09-15T22:58:36.439Z,16.90
2022-09-15T23:01:09.663Z,16.80
2022-09-15T23:03:37.531Z,16.90
2022-09-15T23:06:05.521Z,16.90
2022-09-15T23:08:32.970Z,16.80
2022-09-15T23:11:07.031Z,16.70
2022-09-15T23:13:34.575Z,16.90
2022-09-15T23:16:02.140Z,16.90
2022-09-15T23:18:29.971Z,16.80
2022-09-15T23:21:11.053Z,16.80
2022-09-15T23:23:40.658Z,16.90
2022-09-15T23:26:10.206Z,16.80
2022-09-15T23:28:39.221Z,16.70
2022-09-15T23:31:07.084Z,16.80
2022-09-15T23:33:34.692Z,16.80
2022-09-15T23:36:03.312Z,16.70
2022-09-15T23:38:30.742Z,16.60
2022-09-15T23:40:57.996Z,16.70
2022-09-15T23:43:24.981Z,16.70
2022-09-15T23:45:53.479Z,16.70
2022-09-15T23:48:20.921Z,16.60
2022-09-15T23:50:48.022Z,16.50
2022-09-15T23:53:14.932Z,16.40
2022-09-15T23:55:41.867Z,16.40
2022-09-15T23:58:08.746Z,16.40
